createdAt,value
2022-09-20T00:01:32.341Z,9.10
2022-09-20T00:04:00.268Z,9.10
2022-09-20T00:06:28.762Z,9.00
2022-09-20T00:08:56.781Z,9.00
2022-09-20T00:11:25.376Z,9.00
2022-09-20T00:13:53.501Z,9.00
2022-09-20T00:16:22.229Z,8.90
2022-09-20T00:18:52.645Z,8.90
2022-09-20T00:21:21.185Z,9.00
2022-09-20T00:23:48.064Z,9.00
2022-09-20T00:26:15.006Z,9.00
2022-09-20T00:28:42.474Z,9.10
2022-09-20T00:31:09.406Z,9.10
2022-09-20T00:33:54.852Z,9.20
2022-09-20T00:36:22.044Z,9.20
2022-09-20T00:38:48.947Z,9.30
2022-09-20T00:41:16.802Z,9.30
2022-09-20T00:43:44.802Z,9.40
2022-09-20T00:46:31.849Z,9.40
2022-09-20T00:49:05.589Z,9.40
2022-09-20T00:51:34.980Z,9.50
2022-09-20T00:54:03.406Z,9.50
2022-09-20T00:56:32.898Z,9.50
2022-09-20T00:59:09.648Z,9.50
2022-09-20T01:01:36.760Z,9.50
2022-09-20T01:04:03.916Z,9.60
2022-09-20T01:06:31.334Z,9.50
2022-09-20T01:09:02.645Z,9.50
2022-09-20T01:11:30.337Z,9.50
2022-09-20T01:13:57.659Z,9.50
2022-09-20T01:16:26.304Z,9.50
2022-09-20T01:18:53.404Z,9.40
2022-09-20T01:21:20.719Z,9.50
2022-09-20T01:23:56.845Z,9.50
2022-09-20T01:26:29.488Z,9.50
2022-09-20T01:29:16.612Z,9.50
2022-09-20T01:31:46.962Z,9.50
2022-09-20T01:34:15.621Z,9.50
2022-09-20T01:36:42.422Z,9.50
2022-09-20T01:39:12.529Z,9.50
2022-09-20T01:41:55.852Z,9.50
2022-09-20T01:44:22.649Z,9.50
2022-09-20T01:46:58.412Z,9.50
2022-09-20T01:49:25.251Z,9.50
2022-09-20T01:51:54.883Z,9.50
2022-09-20T01:54:21.803Z,9.50
2022-09-20T01:57:05.996Z,9.60
2022-09-20T01:59:38.542Z,9.60
2022-09-20T02:02:10.411Z,9.60
2022-09-20T02:05:09.637Z,9.60
2022-09-20T02:07:56.442Z,9.60
2022-09-20T02:10:28.789Z,9.60
2022-09-20T02:13:03.426Z,9.60
2022-09-20T02:15:30.696Z,9.60
2022-09-20T02:17:57.553Z,9.50
2022-09-20T02:20:32.061Z,9.60
2022-09-20T02:23:11.931Z,9.60
2022-09-20T02:25:50.984Z,9.60
2022-09-20T02:28:20.686Z,9.60
2022-09-20T02:31:06.262Z,9.60
2022-09-20T02:33:51.580Z,9.50
2022-09-20T02:36:21.225Z,9.50
2022-09-20T02:38:53.761Z,9.50
2022-09-20T02:41:20.563Z,9.50
2022-09-20T02:44:00.072Z,9.50
2022-09-20T02:46:30.725Z,9.50
2022-09-20T02:49:16.205Z,9.40
2022-09-20T02:51:53.872Z,9.40
2022-09-20T02:54:39.522Z,9.40
2022-09-20T02:57:15.900Z,9.40
2022-09-20T03:00:01.982Z,9.40
2022-09-20T03:02:37.699Z,9.40
2022-09-20T03:05:14.805Z,9.40
2022-09-20T03:07:41.773Z,9.40
2022-09-20T03:10:17.171Z,9.40
2022-09-20T03:12:50.153Z,9.40
2022-09-20T03:15:32.306Z,9.30
2022-09-20T03:18:06.618Z,9.30
2022-09-20T03:20:39.044Z,9.30
2022-09-20T03:23:24.276Z,9.30
2022-09-20T03:25:59.914Z,9.30
2022-09-20T03:28:29.700Z,9.30
2022-09-20T03:30:59.679Z,9.30
2022-09-20T03:33:35.384Z,9.30
2022-09-20T03:36:27.078Z,9.30
2022-09-20T03:38:53.875Z,9.30
2022-09-20T03:41:39.519Z,9.30
2022-09-20T03:44:24.492Z,9.30
2022-09-20T03:46:53.129Z,9.30
2022-09-20T03:49:35.319Z,9.30
2022-09-20T03:52:22.209Z,9.30
2022-09-20T03:55:07.545Z,9.30
2022-09-20T03:57:46.619Z,9.30
2022-09-20T04:00:32.073Z,9.30
2022-09-20T04:03:08.097Z,9.30
2022-09-20T04:05:37.810Z,9.30
2022-09-20T04:08:14.271Z,9.30
2022-09-20T04:10:59.893Z,9.30
2022-09-20T04:13:37.531Z,9.30
2022-09-20T04:16:27.428Z,9.20
2022-09-20T04:19:09.304Z,9.30
2022-09-20T04:21:40.200Z,9.20
2022-09-20T04:24:07.081Z,9.20
2022-09-20T04:26:37.992Z,9.20
2022-09-20T04:29:23.409Z,9.20
2022-09-20T04:32:03.936Z,9.20
2022-09-20T04:34:54.412Z,9.20
2022-09-20T04:37:25.015Z,9.20
2022-09-20T04:40:04.840Z,9.20
2022-09-20T04:42:45.684Z,9.20
2022-09-20T04:45:12.783Z,9.30
2022-09-20T04:47:48.800Z,9.30
2022-09-20T04:50:35.906Z,9.30
2022-09-20T04:53:21.765Z,9.30
2022-09-20T04:55:56.301Z,9.30
2022-09-20T04:58:37.777Z,9.30
2022-09-20T05:01:07.484Z,9.30
2022-09-20T05:03:50.364Z,9.30
2022-09-20T05:06:23.427Z,9.30
2022-09-20T05:08:50.259Z,9.30
2022-09-20T05:11:17.475Z,9.40
2022-09-20T05:14:02.785Z,9.40
2022-09-20T05:16:45.161Z,9.40
2022-09-20T05:19:24.408Z,9.40
2022-09-20T05:22:19.302Z,9.40
2022-09-20T05:25:01.297Z,9.40
2022-09-20T05:27:43.733Z,9.50
2022-09-20T05:30:10.566Z,9.50
2022-09-20T05:32:38.081Z,9.60
2022-09-20T05:35:07.695Z,9.70
2022-09-20T05:37:43.817Z,9.70
2022-09-20T05:40:29.491Z,9.80
2022-09-20T05:43:02.394Z,10.00
2022-09-20T05:45:48.231Z,10.10
2022-09-20T05:48:15.203Z,10.30
2022-09-20T05:50:42.026Z,10.60
2022-09-20T05:53:27.720Z,10.70
2022-09-20T05:56:13.047Z,10.60
2022-09-20T05:58:42.578Z,10.40
2022-09-20T06:01:42.093Z,10.30
2022-09-20T06:04:17.911Z,10.30
2022-09-20T06:06:44.851Z,10.30
2022-09-20T06:09:14.644Z,10.20
2022-09-20T06:11:56.487Z,10.20
2022-09-20T06:14:27.877Z,10.20
2022-09-20T06:17:03.505Z,10.20
2022-09-20T06:19:32.593Z,10.20
2022-09-20T06:22:03.966Z,10.20
2022-09-20T06:24:51.848Z,10.30
2022-09-20T06:27:25.351Z,10.30
2022-09-20T06:29:55.057Z,10.20
2022-09-20T06:32:21.886Z,10.20
2022-09-20T06:34:49.172Z,10.20
2022-09-20T06:37:34.632Z,10.30
2022-09-20T06:40:20.386Z,10.30
2022-09-20T06:42:47.801Z,10.30
2022-09-20T06:45:14.704Z,10.30
2022-09-20T06:47:41.636Z,10.40
2022-09-20T06:50:15.956Z,10.40
2022-09-20T06:52:43.958Z,10.40
2022-09-20T06:55:18.590Z,10.40
2022-09-20T06:57:46.004Z,10.50
2022-09-20T07:00:16.481Z,10.50
2022-09-20T07:02:43.743Z,10.50
2022-09-20T07:05:14.447Z,10.60
2022-09-20T07:07:41.557Z,10.50
2022-09-20T07:10:08.838Z,10.50
2022-09-20T07:12:35.829Z,10.50
2022-09-20T07:15:02.670Z,10.60
2022-09-20T07:17:29.494Z,10.60
2022-09-20T07:19:57.290Z,10.60
2022-09-20T07:22:24.389Z,10.60
2022-09-20T07:24:51.305Z,10.70
2022-09-20T07:27:18.362Z,10.80
2022-09-20T07:29:46.347Z,10.90
2022-09-20T07:32:13.273Z,11.10
2022-09-20T07:34:40.719Z,11.10
2022-09-20T07:37:07.589Z,11.20
2022-09-20T07:39:34.456Z,11.30
2022-09-20T07:42:06.219Z,11.40
2022-09-20T07:44:33.079Z,11.40
2022-09-20T07:47:00.579Z,11.50
2022-09-20T07:49:30.055Z,11.60
2022-09-20T07:51:57.526Z,11.60
2022-09-20T07:54:24.655Z,11.70
2022-09-20T07:56:51.548Z,11.80
2022-09-20T07:59:18.545Z,11.80
2022-09-20T08:01:45.385Z,11.70
2022-09-20T08:04:12.515Z,11.90
2022-09-20T08:06:40.421Z,12.00
2022-09-20T08:09:11.139Z,12.00
2022-09-20T08:11:39.722Z,12.00
2022-09-20T08:14:08.097Z,12.00
2022-09-20T08:16:43.435Z,12.10
2022-09-20T08:19:14.993Z,12.20
2022-09-20T08:21:41.909Z,12.30
2022-09-20T08:24:08.781Z,12.30
2022-09-20T08:26:36.216Z,12.30
2022-09-20T08:29:05.386Z,12.10
2022-09-20T08:31:37.100Z,12.20
2022-09-20T08:34:09.205Z,12.30
2022-09-20T08:36:37.319Z,12.30
2022-09-20T08:41:51.753Z,12.60
2022-09-20T08:44:27.733Z,12.50
2022-09-20T08:47:17.721Z,12.70
2022-09-20T08:49:47.723Z,12.80
2022-09-20T08:52:20.477Z,12.90
2022-09-20T08:54:47.610Z,12.80
2022-09-20T08:57:15.633Z,12.70
2022-09-20T08:59:42.548Z,12.50
2022-09-20T09:02:17.324Z,12.40
2022-09-20T09:04:48.840Z,12.60
2022-09-20T09:07:22.409Z,12.80
2022-09-20T09:09:52.024Z,13.00
2022-09-20T09:12:23.916Z,13.20
2022-09-20T09:14:55.268Z,13.20
2022-09-20T09:17:27.489Z,13.10
2022-09-20T09:19:56.248Z,13.10
2022-09-20T09:22:40.204Z,13.30
2022-09-20T09:25:07.048Z,13.40
2022-09-20T09:27:35.297Z,13.80
2022-09-20T09:30:02.534Z,13.90
2022-09-20T09:32:31.298Z,13.80
2022-09-20T09:35:20.228Z,13.50
2022-09-20T09:37:54.029Z,13.60
2022-09-20T09:40:21.043Z,13.80
2022-09-20T09:42:52.388Z,14.00
2022-09-20T09:45:28.945Z,14.30
2022-09-20T09:47:56.791Z,14.50
2022-09-20T09:50:31.629Z,14.50
2022-09-20T09:53:03.163Z,14.50
2022-09-20T09:55:46.415Z,14.30
2022-09-20T09:58:22.847Z,14.10
2022-09-20T10:00:50.671Z,13.90
2022-09-20T10:03:36.208Z,13.70
2022-09-20T10:06:18.391Z,13.50
2022-09-20T10:08:47.959Z,13.40
2022-09-20T10:11:29.419Z,13.20
2022-09-20T10:13:59.304Z,13.10
2022-09-20T10:16:29.400Z,12.80
2022-09-20T10:19:06.558Z,12.40
2022-09-20T10:21:48.893Z,12.10
2022-09-20T10:24:21.887Z,11.80
2022-09-20T10:27:12.773Z,11.60
2022-09-20T10:30:02.038Z,11.50
2022-09-20T10:32:39.405Z,11.40
2022-09-20T10:35:15.941Z,11.40
2022-09-20T10:37:50.379Z,11.50
2022-09-20T10:40:26.380Z,11.70
2022-09-20T10:43:17.298Z,11.70
2022-09-20T10:48:49.728Z,12.00
2022-09-20T10:51:28.450Z,12.20
2022-09-20T10:53:58.250Z,12.40
2022-09-20T10:56:25.169Z,12.60
2022-09-20T10:59:10.856Z,13.10
2022-09-20T11:01:47.287Z,13.60
2022-09-20T11:04:29.884Z,13.60
2022-09-20T11:07:05.722Z,13.50
2022-09-20T11:09:36.247Z,13.50
2022-09-20T11:12:12.070Z,13.50
2022-09-20T11:14:42.368Z,13.60
2022-09-20T11:17:22.496Z,13.50
2022-09-20T11:19:52.191Z,13.50
2022-09-20T11:22:22.737Z,13.50
2022-09-20T11:24:52.374Z,13.60
2022-09-20T11:27:23.463Z,13.60
2022-09-20T11:30:02.777Z,13.80
2022-09-20T11:32:32.688Z,13.90
2022-09-20T11:35:03.338Z,14.20
2022-09-20T11:37:36.517Z,14.30
2022-09-20T11:40:18.797Z,14.30
2022-09-20T11:42:46.294Z,14.50
2022-09-20T11:45:13.434Z,14.60
2022-09-20T11:47:54.433Z,14.50
2022-09-20T11:50:40.296Z,14.60
2022-09-20T11:53:25.708Z,14.50
2022-09-20T11:55:52.518Z,14.50
2022-09-20T11:58:22.520Z,14.60
2022-09-20T12:00:54.460Z,14.50
2022-09-20T12:03:38.224Z,14.50
2022-09-20T12:06:06.952Z,14.40
2022-09-20T12:08:37.609Z,14.80
2022-09-20T12:11:10.356Z,15.10
2022-09-20T12:13:39.318Z,15.30
2022-09-20T12:16:12.327Z,15.40
2022-09-20T12:18:47.132Z,15.60
2022-09-20T12:21:16.524Z,15.50
2022-09-20T12:23:44.342Z,15.50
2022-09-20T12:26:21.039Z,15.70
2022-09-20T12:28:52.385Z,15.40
2022-09-20T12:31:19.619Z,15.20
2022-09-20T12:34:00.402Z,15.00
2022-09-20T12:36:28.247Z,14.80
2022-09-20T12:38:59.561Z,14.50
2022-09-20T12:41:28.952Z,14.30
2022-09-20T12:43:58.034Z,14.20
2022-09-20T12:46:27.263Z,14.20
2022-09-20T12:49:10.590Z,13.90
2022-09-20T12:51:56.394Z,13.80
2022-09-20T12:54:23.319Z,13.70
2022-09-20T12:56:50.184Z,13.60
2022-09-20T12:59:24.712Z,13.60
2022-09-20T13:01:51.802Z,13.60
2022-09-20T13:04:37.316Z,14.20
2022-09-20T13:07:23.123Z,15.10
2022-09-20T13:09:50.139Z,15.80
2022-09-20T13:12:17.260Z,16.10
2022-09-20T13:14:44.668Z,16.60
2022-09-20T13:17:23.118Z,16.70
2022-09-20T13:19:50.909Z,17.20
2022-09-20T13:22:23.993Z,17.20
2022-09-20T13:24:52.217Z,16.90
2022-09-20T13:27:22.158Z,16.50
2022-09-20T13:29:49.511Z,16.20
2022-09-20T13:32:29.492Z,16.20
2022-09-20T13:35:06.869Z,16.40
2022-09-20T13:37:34.097Z,17.20
2022-09-20T13:40:01.209Z,16.90
2022-09-20T13:42:30.032Z,16.40
2022-09-20T13:44:58.790Z,16.10
2022-09-20T13:47:27.452Z,15.70
2022-09-20T13:50:00.838Z,15.60
2022-09-20T13:52:28.763Z,15.40
2022-09-20T13:54:56.151Z,15.30
2022-09-20T13:57:26.412Z,15.10
2022-09-20T13:59:54.232Z,15.00
2022-09-20T14:02:29.789Z,15.10
2022-09-20T14:04:58.052Z,15.00
2022-09-20T14:07:28.390Z,14.90
2022-09-20T14:09:56.597Z,14.80
2022-09-20T14:12:24.044Z,14.80
2022-09-20T14:14:51.355Z,14.70
2022-09-20T14:17:19.457Z,14.60
2022-09-20T14:19:48.029Z,14.70
2022-09-20T14:22:23.469Z,14.70
2022-09-20T14:25:01.563Z,14.80
2022-09-20T14:27:31.172Z,15.30
2022-09-20T14:29:58.581Z,15.80
2022-09-20T14:32:33.968Z,16.30
2022-09-20T14:35:00.890Z,16.60
2022-09-20T14:37:30.503Z,16.80
2022-09-20T14:40:16.209Z,16.80
2022-09-20T14:42:45.809Z,16.90
2022-09-20T14:45:39.927Z,17.00
2022-09-20T14:48:11.024Z,17.00
2022-09-20T14:50:38.454Z,17.10
2022-09-20T14:53:23.458Z,17.20
2022-09-20T14:55:57.606Z,17.30
2022-09-20T14:58:26.329Z,17.20
2022-09-20T15:00:57.995Z,17.00
2022-09-20T15:03:31.142Z,16.80
2022-09-20T15:05:58.316Z,17.10
2022-09-20T15:08:25.772Z,17.20
2022-09-20T15:10:52.776Z,16.90
2022-09-20T15:13:19.652Z,16.50
2022-09-20T15:15:49.336Z,16.70
2022-09-20T15:18:36.366Z,16.70
2022-09-20T15:21:03.335Z,16.30
2022-09-20T15:23:30.163Z,15.90
2022-09-20T15:25:57.065Z,15.50
2022-09-20T15:28:24.229Z,15.30
2022-09-20T15:30:51.787Z,15.00
2022-09-20T15:33:19.575Z,14.90
2022-09-20T15:35:46.533Z,15.20
2022-09-20T15:38:14.509Z,15.10
2022-09-20T15:40:46.269Z,14.90
2022-09-20T15:43:16.467Z,14.90
2022-09-20T15:45:50.563Z,15.30
2022-09-20T15:48:21.572Z,15.00
2022-09-20T15:50:58.695Z,14.60
2022-09-20T15:53:25.538Z,14.40
2022-09-20T15:55:52.421Z,14.20
2022-09-20T15:58:19.253Z,14.00
2022-09-20T16:00:48.510Z,14.00
2022-09-20T16:03:15.572Z,13.90
2022-09-20T16:05:42.402Z,13.70
2022-09-20T16:08:09.344Z,13.70
2022-09-20T16:10:38.540Z,13.60
2022-09-20T16:13:05.422Z,13.60
2022-09-20T16:15:32.297Z,13.50
2022-09-20T16:18:17.821Z,13.60
2022-09-20T16:20:44.681Z,13.60
2022-09-20T16:23:13.582Z,13.70
2022-09-20T16:25:40.517Z,13.70
2022-09-20T16:28:07.393Z,13.70
2022-09-20T16:30:34.534Z,13.60
2022-09-20T16:33:05.536Z,13.70
2022-09-20T16:35:34.215Z,13.70
2022-09-20T16:38:04.236Z,13.60
2022-09-20T16:40:31.112Z,13.50
2022-09-20T16:42:58.810Z,13.40
2022-09-20T16:45:27.070Z,13.40
2022-09-20T16:47:57.456Z,13.30
2022-09-20T16:50:24.509Z,13.30
2022-09-20T16:52:51.396Z,13.20
2022-09-20T16:55:19.832Z,13.20
2022-09-20T16:57:50.254Z,13.10
2022-09-20T17:00:20.948Z,13.10
2022-09-20T17:02:50.869Z,13.10
2022-09-20T17:05:17.680Z,13.00
2022-09-20T17:07:44.921Z,12.90
2022-09-20T17:10:11.797Z,12.90
2022-09-20T17:12:46.843Z,12.80
2022-09-20T17:15:13.866Z,12.80
2022-09-20T17:17:42.177Z,12.70
2022-09-20T17:20:09.100Z,12.60
2022-09-20T17:22:36.013Z,12.50
2022-09-20T17:25:02.965Z,12.50
2022-09-20T17:27:29.895Z,12.40
2022-09-20T17:29:57.540Z,12.40
2022-09-20T17:32:25.006Z,12.40
2022-09-20T17:34:52.511Z,12.40
2022-09-20T17:37:19.788Z,12.30
2022-09-20T17:39:47.688Z,12.20
2022-09-20T17:42:14.574Z,12.20
2022-09-20T17:44:41.521Z,12.20
2022-09-20T17:47:08.445Z,12.10
2022-09-20T17:49:35.391Z,12.10
2022-09-20T17:52:02.319Z,12.10
2022-09-20T17:54:29.198Z,12.00
2022-09-20T17:56:56.403Z,11.90
2022-09-20T17:59:23.448Z,11.80
2022-09-20T18:01:51.145Z,11.70
2022-09-20T18:04:18.627Z,11.60
2022-09-20T18:06:48.954Z,11.60
2022-09-20T18:09:19.952Z,11.50
2022-09-20T18:11:49.564Z,11.40
2022-09-20T18:14:20.630Z,11.30
2022-09-20T18:16:47.549Z,11.20
2022-09-20T18:19:16.216Z,11.20
2022-09-20T18:21:43.413Z,11.10
2022-09-20T18:24:11.283Z,11.00
2022-09-20T18:26:38.856Z,11.00
2022-09-20T18:29:07.010Z,10.90
2022-09-20T18:31:38.426Z,10.90
2022-09-20T18:34:06.479Z,10.80
2022-09-20T18:36:34.753Z,10.70
2022-09-20T18:39:03.281Z,10.70
2022-09-20T18:41:33.111Z,10.70
2022-09-20T18:44:00.818Z,10.60
2022-09-20T18:46:29.461Z,10.60
2022-09-20T18:49:05.079Z,10.60
2022-09-20T18:51:35.868Z,10.60
2022-09-20T18:54:06.141Z,10.60
2022-09-20T18:56:34.353Z,10.60
2022-09-20T18:59:02.479Z,10.60
2022-09-20T19:01:34.881Z,10.70
2022-09-20T19:04:12.272Z,10.70
2022-09-20T19:06:43.208Z,10.70
2022-09-20T19:09:24.468Z,10.80
2022-09-20T19:11:55.728Z,10.90
2022-09-20T19:14:27.118Z,11.00
2022-09-20T19:16:58.639Z,11.00
2022-09-20T19:19:28.594Z,11.00
2022-09-20T19:21:55.464Z,11.00
2022-09-20T19:24:41.156Z,11.00
2022-09-20T19:27:10.768Z,11.00
2022-09-20T19:29:38.004Z,11.00
2022-09-20T19:32:05.177Z,11.00
2022-09-20T19:34:32.495Z,11.00
2022-09-20T19:37:08.663Z,11.00
2022-09-20T19:39:50.940Z,11.00
2022-09-20T19:42:36.632Z,10.90
2022-09-20T19:45:22.312Z,11.00
2022-09-20T19:47:58.270Z,11.00
2022-09-20T19:50:47.948Z,11.00
2022-09-20T19:53:17.012Z,11.00
2022-09-20T19:55:48.074Z,11.00
2022-09-20T19:58:16.684Z,11.00
2022-09-20T20:00:44.415Z,10.90
2022-09-20T20:03:17.339Z,10.90
2022-09-20T20:05:51.438Z,11.00
2022-09-20T20:08:48.778Z,11.00
2022-09-20T20:11:20.921Z,11.00
2022-09-20T20:14:08.155Z,11.00
2022-09-20T20:16:53.609Z,10.90
2022-09-20T20:19:59.274Z,10.90
2022-09-20T20:22:45.969Z,10.90
2022-09-20T20:25:21.502Z,10.90
2022-09-20T20:27:48.761Z,10.80
2022-09-20T20:30:15.859Z,10.70
2022-09-20T20:32:42.740Z,10.70
2022-09-20T20:35:13.451Z,10.60
2022-09-20T20:37:40.309Z,10.60
2022-09-20T20:40:12.298Z,10.60
2022-09-20T20:42:39.822Z,10.60
2022-09-20T20:45:08.864Z,10.60
2022-09-20T20:47:38.183Z,10.60
2022-09-20T20:50:05.428Z,10.50
2022-09-20T20:52:32.560Z,10.50
2022-09-20T20:55:00.250Z,10.40
2022-09-20T20:57:28.437Z,10.30
2022-09-20T21:00:03.082Z,10.10
2022-09-20T21:02:30.107Z,10.00
2022-09-20T21:04:57.010Z,9.90
2022-09-20T21:07:24.969Z,9.90
2022-09-20T21:09:51.840Z,9.80
2022-09-20T21:12:18.816Z,9.70
2022-09-20T21:14:46.163Z,9.70
2022-09-20T21:17:13.024Z,9.70
2022-09-20T21:19:40.202Z,9.70
2022-09-20T21:22:07.093Z,9.80
2022-09-20T21:24:33.947Z,9.90
2022-09-20T21:27:01.292Z,9.90
2022-09-20T21:29:28.585Z,10.00
2022-09-20T21:31:55.629Z,10.00
2022-09-20T21:34:22.486Z,10.10
2022-09-20T21:36:49.429Z,10.10
2022-09-20T21:39:16.233Z,10.20
2022-09-20T21:41:43.115Z,10.20
2022-09-20T21:44:12.689Z,10.20
2022-09-20T21:46:40.509Z,10.10
2022-09-20T21:49:08.756Z,10.10
2022-09-20T21:51:36.316Z,10.00
2022-09-20T21:54:04.035Z,10.00
2022-09-20T21:56:35.047Z,9.90
2022-09-20T21:59:02.691Z,9.80
2022-09-20T22:01:32.584Z,9.80
2022-09-20T22:04:00.964Z,9.70
2022-09-20T22:06:29.776Z,9.60
2022-09-20T22:08:59.564Z,9.60
2022-09-20T22:11:27.287Z,9.50
2022-09-20T22:13:54.890Z,9.40
2022-09-20T22:16:23.040Z,9.30
2022-09-20T22:18:50.053Z,9.20
2022-09-20T22:21:21.844Z,9.10
2022-09-20T22:23:49.526Z,9.10
2022-09-20T22:26:17.582Z,9.10
2022-09-20T22:28:44.697Z,9.10
2022-09-20T22:31:11.599Z,9.10
2022-09-20T22:33:45.643Z,9.10
2022-09-20T22:36:14.247Z,9.10
2022-09-20T22:38:41.730Z,9.10
2022-09-20T22:41:08.961Z,9.20
2022-09-20T22:43:36.160Z,9.20
2022-09-20T22:46:06.175Z,9.20
2022-09-20T22:48:33.549Z,9.20
2022-09-20T22:51:01.125Z,9.20
2022-09-20T22:53:28.533Z,9.10
2022-09-20T22:56:01.574Z,9.10
2022-09-20T22:58:30.128Z,9.00
2022-09-20T23:01:02.595Z,8.90
2022-09-20T23:03:29.538Z,8.90
2022-09-20T23:05:56.405Z,8.80
2022-09-20T23:08:25.224Z,8.80
2022-09-20T23:11:12.407Z,8.60
2022-09-20T23:13:39.439Z,8.50
2022-09-20T23:16:13.638Z,8.40
2022-09-20T23:18:40.728Z,8.30
2022-09-20T23:21:07.920Z,8.30
2022-09-20T23:23:35.005Z,8.20
2022-09-20T23:26:07.537Z,8.20
2022-09-20T23:28:41.921Z,8.00
2022-09-20T23:31:12.895Z,7.90
2022-09-20T23:33:43.530Z,7.90
2022-09-20T23:36:13.009Z,7.80
2022-09-20T23:38:39.880Z,7.80
2022-09-20T23:41:07.706Z,7.70
2022-09-20T23:43:35.288Z,7.70
2022-09-20T23:46:02.765Z,7.70
2022-09-20T23:48:29.921Z,7.70
2022-09-20T23:50:56.824Z,7.60
2022-09-20T23:53:24.043Z,7.60
2022-09-20T23:55:50.930Z,7.60
2022-09-20T23:58:18.168Z,7.60
